Time;durP1;ratioP1;P1;durP2;ratioP2;P2;SDS_P1;SDS_P2;PMS_P1;PMS_P2;Temp;Humidity;BMP_temperature;BMP_pressure;BME280_temperature;BME280_humidity;BME280_pressure;Samples;Min_cycle;Max_cycle;Signal;HPM_P1;HPM_P2
2024/01/12 00:00:30;;;;;;;35.00;15.00;;;-4.40;99.90;;;;;;4944775;29;20039;-77
2024/01/12 00:02:55;;;;;;;22.60;11.32;;;-4.40;99.90;;;;;;4943992;28;20049;-79
2024/01/12 00:05:21;;;;;;;25.77;12.57;;;-4.40;99.90;;;;;;4945615;29;20035;-84
2024/01/12 00:07:47;;;;;;;31.48;15.82;;;-4.40;99.90;;;;;;4943001;29;20020;-85
2024/01/12 00:10:13;;;;;;;37.45;16.55;;;-4.30;99.90;;;;;;4945450;29;20095;-78
2024/01/12 00:12:39;;;;;;;30.88;13.93;;;-4.30;99.90;;;;;;4952929;29;20026;-82
2024/01/12 00:15:05;;;;;;;29.65;14.75;;;-4.30;99.90;;;;;;4944689;29;20027;-77
2024/01/12 00:17:31;;;;;;;35.97;15.48;;;-4.30;99.90;;;;;;4947730;29;20038;-77
2024/01/12 00:19:57;;;;;;;31.15;14.15;;;-4.30;99.90;;;;;;4945246;29;20107;-78
2024/01/12 00:22:23;;;;;;;38.17;14.30;;;-4.30;99.90;;;;;;4944901;29;20028;-77
2024/01/12 00:24:49;;;;;;;19.90;11.88;;;-4.30;99.90;;;;;;4946413;29;20054;-78
2024/01/12 00:27:15;;;;;;;35.33;16.20;;;-4.30;99.90;;;;;;4949382;29;20027;-76
2024/01/12 00:29:40;;;;;;;31.98;15.73;;;-4.30;99.90;;;;;;4950370;29;20035;-78
2024/01/12 00:32:06;;;;;;;23.10;13.18;;;-4.30;99.90;;;;;;4952992;29;20044;-78
2024/01/12 00:34:32;;;;;;;13.98;7.45;;;-4.30;99.90;;;;;;4942905;29;20535;-74
2024/01/12 00:36:58;;;;;;;34.13;15.20;;;-4.30;99.90;;;;;;4938612;29;20130;-74
2024/01/12 00:39:24;;;;;;;28.83;15.18;;;-4.20;99.90;;;;;;4938987;29;20043;-74
2024/01/12 00:41:50;;;;;;;26.45;14.25;;;-4.20;99.90;;;;;;4938698;29;20039;-74
2024/01/12 00:44:19;;;;;;;19.42;12.90;;;-4.20;99.90;;;;;;4939177;29;20539;-74
2024/01/12 00:46:45;;;;;;;;;;;-4.20;99.90;;;;;;4939327;29;20047;-74
2024/01/12 00:49:11;;;;;;;16.83;10.98;;;-4.20;99.90;;;;;;4938503;29;19957;-74
2024/01/12 00:51:37;;;;;;;27.25;14.57;;;-4.20;99.90;;;;;;4939671;29;20024;-75
2024/01/12 00:54:04;;;;;;;14.20;8.50;;;-4.20;99.90;;;;;;4945041;29;20035;-75
2024/01/12 00:56:30;;;;;;;20.88;12.23;;;-4.10;99.90;;;;;;4941539;29;20028;-76
2024/01/12 00:58:55;;;;;;;19.85;10.68;;;-4.10;99.90;;;;;;4942650;29;20051;-76
2024/01/12 01:01:22;;;;;;;22.65;11.82;;;-4.10;99.90;;;;;;4941614;29;20043;-75
2024/01/12 01:03:48;;;;;;;19.33;11.55;;;-4.10;99.90;;;;;;4941252;29;20042;-76
2024/01/12 01:06:14;;;;;;;41.42;15.13;;;-4.10;99.90;;;;;;4942433;28;20027;-76
2024/01/12 01:08:39;;;;;;;27.10;12.68;;;-4.10;99.90;;;;;;4941319;29;20047;-76
2024/01/12 01:11:05;;;;;;;35.42;17.10;;;-4.00;99.90;;;;;;4932850;29;20030;-76
2024/01/12 01:13:31;;;;;;;18.65;10.60;;;-4.00;99.90;;;;;;4943898;29;20039;-75
2024/01/12 01:15:57;;;;;;;29.92;15.55;;;-4.00;99.90;;;;;;4925910;29;20060;-77
2024/01/12 01:18:23;;;;;;;35.75;14.38;;;-4.00;99.90;;;;;;4952214;29;20039;-76
2024/01/12 01:20:49;;;;;;;29.40;14.57;;;-4.00;99.90;;;;;;4941889;29;20051;-76
2024/01/12 01:23:15;;;;;;;29.98;12.00;;;-4.00;99.90;;;;;;4938630;29;20139;-76
2024/01/12 01:25:41;;;;;;;33.58;16.73;;;-4.00;99.90;;;;;;4943678;28;20052;-77
2024/01/12 01:28:06;;;;;;;26.25;12.35;;;-4.00;99.90;;;;;;4942691;29;20070;-76
2024/01/12 01:30:32;;;;;;;24.05;13.50;;;-3.90;99.90;;;;;;4951041;28;20074;-76
2024/01/12 01:32:58;;;;;;;29.40;16.63;;;-3.90;99.90;;;;;;4943350;29;20039;-75
2024/01/12 01:35:23;;;;;;;29.63;14.57;;;-3.90;99.90;;;;;;4946516;29;20095;-76
2024/01/12 01:37:50;;;;;;;40.33;16.50;;;-3.80;99.90;;;;;;4941082;29;20031;-77
2024/01/12 01:40:16;;;;;;;34.40;15.23;;;-3.80;99.90;;;;;;4941367;29;20016;-76
2024/01/12 01:42:45;;;;;;;22.65;14.18;;;-3.80;99.90;;;;;;4943390;29;20020;-77
2024/01/12 01:45:11;;;;;;;24.13;10.80;;;-3.80;99.90;;;;;;4944943;29;20032;-78
2024/01/12 01:47:36;;;;;;;35.67;16.38;;;-3.80;99.90;;;;;;4944614;29;20032;-78
2024/01/12 01:50:03;;;;;;;16.42;10.45;;;-3.80;99.90;;;;;;4915704;29;20059;-77
2024/01/12 01:52:29;;;;;;;32.65;14.15;;;-3.80;99.90;;;;;;4942378;29;20027;-77
2024/01/12 01:54:56;;;;;;;36.75;17.27;;;-3.80;99.90;;;;;;4944210;28;20046;-77
2024/01/12 01:57:24;;;;;;;33.35;16.83;;;-3.80;99.90;;;;;;4918313;29;20043;-77
2024/01/12 01:59:50;;;;;;;21.08;11.73;;;-3.80;99.90;;;;;;4943373;29;20054;-77
2024/01/12 02:02:16;;;;;;;31.15;16.08;;;-3.80;99.90;;;;;;4944650;29;20060;-77
2024/01/12 02:04:42;;;;;;;25.80;13.45;;;-3.70;99.90;;;;;;4939708;29;20578;-74
2024/01/12 02:07:07;;;;;;;34.97;15.65;;;-3.80;99.90;;;;;;4937514;29;20035;-73
2024/01/12 02:09:34;;;;;;;42.88;15.18;;;-3.70;99.90;;;;;;4938226;29;20027;-74
2024/01/12 02:12:00;;;;;;;30.45;17.00;;;-3.70;99.90;;;;;;4936770;29;20036;-75
2024/01/12 02:14:25;;;;;;;26.67;14.27;;;-3.70;99.90;;;;;;4938790;29;20087;-75
2024/01/12 02:16:52;;;;;;;36.80;17.98;;;-3.70;99.90;;;;;;4923165;29;20032;-75
2024/01/12 02:19:17;;;;;;;26.70;13.85;;;-3.70;99.90;;;;;;4935621;29;20028;-75
2024/01/12 02:21:43;;;;;;;40.42;15.95;;;-3.70;99.90;;;;;;4936521;29;20042;-74
2024/01/12 02:24:08;;;;;;;52.28;17.05;;;-3.70;99.90;;;;;;4925035;29;20062;-73
2024/01/12 02:26:34;;;;;;;29.75;12.63;;;-3.60;99.90;;;;;;4937540;29;20055;-74
2024/01/12 02:29:02;;;;;;;32.40;15.68;;;-3.60;99.90;;;;;;4939289;29;20059;-74
2024/01/12 02:31:29;;;;;;;30.05;14.18;;;-3.60;99.90;;;;;;4938525;29;20027;-74
2024/01/12 02:33:55;;;;;;;27.70;17.30;;;-3.60;99.90;;;;;;4938196;29;20031;-74
2024/01/12 02:36:24;;;;;;;24.13;11.93;;;-3.60;99.90;;;;;;4936868;29;20042;-75
2024/01/12 02:38:50;;;;;;;32.78;16.13;;;-3.70;99.90;;;;;;4937732;29;20012;-75
2024/01/12 02:41:16;;;;;;;17.20;9.80;;;-3.60;99.90;;;;;;4937777;29;20035;-74
2024/01/12 02:43:42;;;;;;;32.75;18.38;;;-3.60;99.90;;;;;;4938198;29;20103;-76
2024/01/12 02:46:07;;;;;;;23.13;12.27;;;-3.60;99.90;;;;;;4936546;29;20036;-79
2024/01/12 02:48:33;;;;;;;34.65;15.07;;;-3.60;99.90;;;;;;4945741;29;20066;-74
2024/01/12 02:50:58;;;;;;;30.02;15.00;;;-3.60;99.90;;;;;;4944408;29;20071;-74
2024/01/12 02:53:24;;;;;;;28.63;14.43;;;-3.60;99.90;;;;;;4946185;29;20031;-78
2024/01/12 02:55:50;;;;;;;31.77;16.67;;;-3.60;99.90;;;;;;4950029;29;20056;-77
2024/01/12 02:58:15;;;;;;;23.83;12.85;;;-3.60;99.90;;;;;;4956378;28;20047;-77
2024/01/12 03:00:41;;;;;;;23.67;12.95;;;-3.70;99.90;;;;;;4948926;29;20088;-77
2024/01/12 03:03:06;;;;;;;12.48;9.40;;;-3.70;99.90;;;;;;4949016;29;20039;-76
2024/01/12 03:05:32;;;;;;;27.15;14.13;;;-3.70;99.90;;;;;;4950591;29;20051;-77
2024/01/12 03:07:58;;;;;;;27.55;13.20;;;-3.60;99.90;;;;;;4948645;29;20039;-77
2024/01/12 03:10:23;;;;;;;33.95;15.48;;;-3.70;99.90;;;;;;4947041;29;20035;-76
2024/01/12 03:12:49;;;;;;;35.38;14.82;;;-3.70;99.90;;;;;;4948286;29;20112;-76
2024/01/12 03:15:14;;;;;;;29.67;14.10;;;-3.70;99.90;;;;;;4947067;29;20047;-77
2024/01/12 03:17:40;;;;;;;28.48;13.02;;;-3.70;99.90;;;;;;4947413;29;20023;-77
2024/01/12 03:20:08;;;;;;;36.58;14.27;;;-3.70;99.90;;;;;;4946135;29;20042;-77
2024/01/12 03:22:34;;;;;;;20.13;11.00;;;-3.70;99.90;;;;;;4946379;29;20023;-83
2024/01/12 03:25:00;;;;;;;30.95;13.18;;;-3.60;99.90;;;;;;4945626;29;20051;-83
2024/01/12 03:27:27;;;;;;;28.25;14.60;;;-3.60;99.90;;;;;;4946052;29;20031;-79
2024/01/12 03:29:52;;;;;;;29.65;15.65;;;-3.60;99.90;;;;;;4948916;29;20027;-77
2024/01/12 03:32:19;;;;;;;17.30;10.40;;;-3.60;99.90;;;;;;4946008;29;20067;-77
2024/01/12 03:34:44;;;;;;;16.30;9.65;;;-3.50;99.90;;;;;;4946549;29;20032;-76
2024/01/12 03:37:10;;;;;;;25.58;14.20;;;-3.50;99.90;;;;;;4946655;29;20038;-76
2024/01/12 03:39:35;;;;;;;37.10;17.17;;;-3.50;99.90;;;;;;4947156;29;20714;-75
2024/01/12 03:42:01;;;;;;;10.10;6.82;;;-3.50;99.90;;;;;;4946521;29;20027;-78
2024/01/12 03:44:26;;;;;;;32.13;15.52;;;-3.50;99.90;;;;;;4951113;29;20441;-75
2024/01/12 03:46:52;;;;;;;41.95;16.33;;;-3.50;99.90;;;;;;4948914;29;20039;-76
2024/01/12 03:49:18;;;;;;;30.17;16.33;;;-3.50;99.90;;;;;;4947219;29;20047;-76
2024/01/12 03:51:44;;;;;;;23.70;15.60;;;-3.50;99.90;;;;;;4946562;29;20031;-76
2024/01/12 03:54:10;;;;;;;33.00;17.00;;;-3.50;99.90;;;;;;4946446;29;20043;-76
2024/01/12 03:56:35;;;;;;;28.13;14.63;;;-3.50;99.90;;;;;;4946276;29;20024;-75
2024/01/12 03:59:01;;;;;;;20.98;13.30;;;-3.50;99.90;;;;;;4944227;29;20500;-77
2024/01/12 04:01:27;;;;;;;26.42;12.90;;;-3.50;99.90;;;;;;4941205;29;20064;-76
2024/01/12 04:03:52;;;;;;;27.48;13.20;;;-3.50;99.90;;;;;;4941028;29;20043;-73
2024/01/12 04:06:18;;;;;;;29.55;15.35;;;-3.50;99.90;;;;;;4939235;29;20032;-73
2024/01/12 04:08:44;;;;;;;28.80;14.63;;;-3.60;99.90;;;;;;4938788;29;20035;-72
2024/01/12 04:11:20;;;;;;;28.58;15.32;;;-3.60;99.90;;;;;;4938268;29;20039;-73
2024/01/12 04:13:46;;;;;;;17.17;11.50;;;-3.60;99.90;;;;;;4920449;29;20032;-73
2024/01/12 04:16:12;;;;;;;28.63;15.50;;;-3.60;99.90;;;;;;4940516;29;20042;-76
2024/01/12 04:18:37;;;;;;;18.90;12.15;;;-3.60;99.90;;;;;;4936821;29;20540;-72
2024/01/12 04:21:03;;;;;;;25.67;14.18;;;-3.60;99.90;;;;;;4936621;29;20035;-71
2024/01/12 04:23:29;;;;;;;34.60;16.45;;;-3.70;99.90;;;;;;4938416;29;20052;-77
2024/01/12 04:25:55;;;;;;;29.17;14.10;;;-3.70;99.90;;;;;;4945462;28;20048;-77
2024/01/12 04:28:20;;;;;;;18.50;13.63;;;-3.80;99.90;;;;;;4944926;29;20576;-75
2024/01/12 04:30:46;;;;;;;29.95;14.93;;;-3.80;99.90;;;;;;4946109;29;20046;-76
2024/01/12 04:33:11;;;;;;;25.65;13.13;;;-3.80;99.90;;;;;;4947782;28;20112;-77
2024/01/12 04:35:37;;;;;;;26.58;13.10;;;-3.80;99.90;;;;;;4947420;28;20373;-77
2024/01/12 04:38:03;;;;;;;23.23;12.88;;;-3.80;99.90;;;;;;4944277;29;20036;-77
2024/01/12 04:40:28;;;;;;;31.55;13.38;;;-3.80;99.90;;;;;;4929877;29;20051;-76
2024/01/12 04:42:54;;;;;;;31.25;14.10;;;-3.80;99.90;;;;;;4946403;29;20036;-76
2024/01/12 04:45:19;;;;;;;29.33;14.82;;;-3.80;99.90;;;;;;4947408;29;20043;-76
2024/01/12 04:47:45;;;;;;;25.83;11.50;;;-3.80;99.90;;;;;;4947378;29;20412;-77
2024/01/12 04:50:10;;;;;;;23.30;10.50;;;-3.80;99.90;;;;;;4946012;29;20050;-76
2024/01/12 04:52:36;;;;;;;17.98;11.90;;;-3.80;99.90;;;;;;4947547;29;20032;-77
2024/01/12 04:55:02;;;;;;;30.77;13.38;;;-3.80;99.90;;;;;;4944283;29;20038;-77
2024/01/12 04:57:28;;;;;;;26.77;12.95;;;-3.90;99.90;;;;;;4944904;29;20031;-76
2024/01/12 04:59:53;;;;;;;20.00;12.20;;;-3.90;99.90;;;;;;4946344;28;20015;-76
2024/01/12 05:02:19;;;;;;;20.92;12.00;;;-3.90;99.90;;;;;;4930232;29;20079;-77
2024/01/12 05:04:44;;;;;;;30.13;11.77;;;-3.90;99.90;;;;;;4944738;29;20396;-75
2024/01/12 05:07:10;;;;;;;28.05;12.15;;;-3.90;99.90;;;;;;4946060;29;20081;-76
2024/01/12 05:09:35;;;;;;;23.13;11.73;;;-4.00;99.90;;;;;;4942377;28;20031;-77
2024/01/12 05:12:04;;;;;;;34.75;13.93;;;-4.00;99.90;;;;;;4947016;28;20059;-77
2024/01/12 05:14:31;;;;;;;;;;;-4.00;99.90;;;;;;4921220;29;20158;-73
2024/01/12 05:16:57;;;;;;;26.50;10.82;;;-4.10;99.90;;;;;;4935104;29;19919;-72
2024/01/12 05:19:22;;;;;;;24.52;12.43;;;-4.10;99.90;;;;;;4935187;29;20051;-73
2024/01/12 05:21:48;;;;;;;18.52;10.23;;;-4.20;99.90;;;;;;4933227;29;20032;-73
2024/01/12 05:24:13;;;;;;;26.80;14.23;;;-4.10;99.90;;;;;;4936340;29;20059;-72
2024/01/12 05:26:39;;;;;;;28.92;12.68;;;-4.20;99.90;;;;;;4938274;29;20032;-72
2024/01/12 05:29:08;;;;;;;32.15;17.35;;;-4.30;99.90;;;;;;4938405;29;20039;-73
2024/01/12 05:31:34;;;;;;;21.08;12.63;;;-4.40;99.90;;;;;;4936408;29;20047;-72
2024/01/12 05:34:00;;;;;;;26.63;13.57;;;-4.40;99.90;;;;;;4939535;29;20047;-76
2024/01/12 05:36:25;;;;;;;17.42;10.25;;;-4.40;99.90;;;;;;4923695;29;20051;-77
2024/01/12 05:38:51;;;;;;;23.08;12.63;;;-4.40;99.90;;;;;;4945428;29;20059;-76
2024/01/12 05:41:17;;;;;;;25.83;12.82;;;-4.50;99.90;;;;;;4927907;29;20046;-77
2024/01/12 05:43:42;;;;;;;22.60;11.30;;;-4.70;99.90;;;;;;4945573;29;20083;-77
2024/01/12 05:46:08;;;;;;;24.20;12.18;;;-4.70;99.90;;;;;;4930430;29;20087;-77
2024/01/12 05:48:34;;;;;;;16.10;11.27;;;-4.90;99.90;;;;;;4944264;28;20023;-77
2024/01/12 05:51:00;;;;;;;24.73;8.35;;;-5.10;99.90;;;;;;4946414;29;20032;-78
2024/01/12 05:53:25;;;;;;;22.83;12.98;;;-5.30;99.90;;;;;;4947236;29;20039;-77
2024/01/12 05:55:52;;;;;;;27.40;12.15;;;-5.20;99.90;;;;;;4944509;29;20039;-76
2024/01/12 05:58:19;;;;;;;20.60;12.93;;;-5.10;99.90;;;;;;4944215;29;20107;-77
2024/01/12 06:00:46;;;;;;;31.38;13.90;;;-5.10;99.90;;;;;;4944506;29;20062;-77
2024/01/12 06:03:12;;;;;;;24.63;11.50;;;-5.00;99.90;;;;;;4948489;29;20075;-77
2024/01/12 06:05:38;;;;;;;16.35;9.23;;;-5.10;99.90;;;;;;4946378;29;20036;-76
2024/01/12 06:08:04;;;;;;;17.13;11.35;;;-5.30;99.90;;;;;;4934712;23;20615;-34
2024/01/12 06:10:30;;;;;;;23.33;13.00;;;-5.40;99.90;;;;;;4911727;29;20039;-36
2024/01/12 06:12:55;;;;;;;14.60;9.55;;;-5.30;99.90;;;;;;4912280;29;20032;-33
2024/01/12 06:15:21;;;;;;;20.88;9.73;;;-5.30;99.90;;;;;;4908944;29;20064;-33
2024/01/12 06:17:46;;;;;;;21.63;12.35;;;-5.30;99.90;;;;;;4908695;29;20063;-36
2024/01/12 06:20:12;;;;;;;17.85;9.50;;;-5.20;99.90;;;;;;4910312;29;20553;-33
2024/01/12 06:22:37;;;;;;;21.95;10.70;;;-5.10;99.90;;;;;;4909211;29;20602;-35
2024/01/12 06:25:03;;;;;;;14.23;10.40;;;-5.20;99.90;;;;;;4909840;29;20044;-34
2024/01/12 06:27:29;;;;;;;12.65;10.82;;;-5.20;99.90;;;;;;4910400;29;20115;-33
2024/01/12 06:29:54;;;;;;;18.52;10.82;;;-5.30;99.90;;;;;;4911759;29;20057;-33
2024/01/12 06:32:20;;;;;;;23.52;11.85;;;-5.40;99.90;;;;;;4908090;29;20028;-32
2024/01/12 06:34:47;;;;;;;26.52;14.02;;;-5.40;99.90;;;;;;4909448;29;20031;-38
2024/01/12 06:37:12;;;;;;;21.15;10.65;;;-5.40;99.90;;;;;;4897548;29;20036;-33
2024/01/12 06:39:41;;;;;;;17.73;10.13;;;-5.30;99.90;;;;;;4907286;29;20032;-33
2024/01/12 06:42:06;;;;;;;30.50;15.45;;;-5.50;99.90;;;;;;4898990;29;20056;-39
2024/01/12 06:44:32;;;;;;;11.98;8.38;;;-5.50;99.90;;;;;;4905616;29;20131;-33
2024/01/12 06:46:58;;;;;;;25.50;11.43;;;-5.50;99.90;;;;;;4895369;29;20028;-34
2024/01/12 06:49:23;;;;;;;22.58;11.15;;;-5.50;99.90;;;;;;4897503;29;20031;-34
2024/01/12 06:51:49;;;;;;;22.08;12.45;;;-5.50;99.90;;;;;;4895601;29;20028;-35
2024/01/12 06:54:14;;;;;;;17.00;9.23;;;-5.50;99.90;;;;;;4901604;29;20124;-36
2024/01/12 06:56:40;;;;;;;26.73;12.18;;;-5.60;99.90;;;;;;4897584;29;20393;-34
2024/01/12 06:59:06;;;;;;;15.23;8.73;;;-5.60;99.90;;;;;;4894894;29;20491;-34
2024/01/12 07:01:31;;;;;;;11.15;7.07;;;-5.60;99.90;;;;;;4896498;29;20664;-33
2024/01/12 07:03:57;;;;;;;19.55;10.60;;;-5.80;99.90;;;;;;4885025;29;20064;-36
2024/01/12 07:06:23;;;;;;;20.55;12.10;;;-5.80;99.90;;;;;;4896656;29;20030;-36
2024/01/12 07:08:48;;;;;;;17.48;11.43;;;-5.80;99.90;;;;;;4896272;29;20027;-33
2024/01/12 07:11:14;;;;;;;18.40;8.65;;;-5.90;99.90;;;;;;4901369;29;20035;-33
2024/01/12 07:13:39;;;;;;;9.98;5.60;;;-5.90;99.90;;;;;;4901556;29;20024;-34
2024/01/12 07:16:05;;;;;;;22.90;13.65;;;-6.00;99.90;;;;;;4891937;29;20038;-34
2024/01/12 07:18:31;;;;;;;23.98;13.07;;;-6.20;99.90;;;;;;4904969;29;20055;-33
2024/01/12 07:21:02;;;;;;;20.50;12.68;;;-6.10;99.90;;;;;;4902618;29;20391;-35
2024/01/12 07:23:30;;;;;;;15.60;8.75;;;-6.10;99.90;;;;;;4898222;29;20521;-34
2024/01/12 07:25:56;;;;;;;16.00;12.00;;;-6.00;99.90;;;;;;4898886;29;20036;-35
2024/01/12 07:28:22;;;;;;;18.48;9.45;;;-6.00;99.90;;;;;;4899520;29;20729;-34
2024/01/12 07:30:47;;;;;;;16.75;9.27;;;-6.00;99.90;;;;;;4898525;29;20142;-35
2024/01/12 07:33:13;;;;;;;17.63;10.18;;;-6.00;99.90;;;;;;4900666;29;20032;-37
2024/01/12 07:35:39;;;;;;;13.70;9.40;;;-6.00;99.90;;;;;;4903273;29;20024;-36
2024/01/12 07:38:04;;;;;;;13.18;10.20;;;-6.00;99.90;;;;;;4905230;29;20036;-35
2024/01/12 07:40:30;;;;;;;14.00;8.15;;;-6.00;99.90;;;;;;4891442;29;20451;-37
2024/01/12 07:42:55;;;;;;;18.55;9.13;;;-6.10;99.90;;;;;;4913255;29;20038;-33
2024/01/12 07:45:22;;;;;;;10.80;8.82;;;-6.10;99.90;;;;;;4907179;29;20530;-35
2024/01/12 07:47:47;;;;;;;23.48;13.20;;;-6.10;99.90;;;;;;4906833;29;20039;-34
2024/01/12 07:50:13;;;;;;;19.27;10.38;;;-6.10;99.90;;;;;;4912090;29;20020;-34
2024/01/12 07:52:38;;;;;;;20.92;10.30;;;-6.10;99.90;;;;;;4910569;29;20075;-33
2024/01/12 07:55:04;;;;;;;18.83;11.73;;;-6.00;99.90;;;;;;4908351;29;20032;-36
2024/01/12 07:57:30;;;;;;;18.48;11.98;;;-6.00;99.90;;;;;;4903410;29;20769;-35
2024/01/12 07:59:56;;;;;;;14.95;9.77;;;-6.00;99.90;;;;;;4908192;29;20048;-42
2024/01/12 08:02:22;;;;;;;26.08;14.23;;;-6.10;99.90;;;;;;4911053;29;20075;-41
2024/01/12 08:04:47;;;;;;;13.65;10.50;;;-6.00;99.90;;;;;;4906918;29;20080;-42
2024/01/12 08:07:13;;;;;;;16.00;9.73;;;-5.90;99.90;;;;;;4903885;29;20044;-38
2024/01/12 08:09:39;;;;;;;20.60;11.90;;;-5.90;99.90;;;;;;4903415;29;20025;-43
2024/01/12 08:12:05;;;;;;;20.52;10.65;;;-6.00;99.90;;;;;;4899423;29;20082;-42
2024/01/12 08:14:30;;;;;;;17.77;11.60;;;-6.00;99.90;;;;;;4907131;29;20111;-40
2024/01/12 08:16:56;;;;;;;20.58;11.65;;;-5.90;99.90;;;;;;4901264;29;20729;-42
2024/01/12 08:19:21;;;;;;;26.88;10.13;;;-5.90;99.90;;;;;;4907721;29;20478;-42
2024/01/12 08:21:47;;;;;;;21.48;10.40;;;-6.00;99.90;;;;;;4904588;29;20032;-38
2024/01/12 08:24:12;;;;;;;21.45;9.68;;;-6.20;99.90;;;;;;4907752;29;20099;-42
2024/01/12 08:26:38;;;;;;;20.23;10.70;;;-6.20;99.90;;;;;;4889683;29;20131;-42
2024/01/12 08:29:04;;;;;;;18.08;10.05;;;-6.20;99.90;;;;;;4906805;29;20021;-41
2024/01/12 08:31:29;;;;;;;18.63;10.48;;;-6.30;99.90;;;;;;4907768;29;20032;-37
2024/01/12 08:33:55;;;;;;;31.77;13.10;;;-6.30;99.90;;;;;;4907724;29;20047;-41
2024/01/12 08:36:21;;;;;;;21.00;11.18;;;-6.30;99.90;;;;;;4904169;29;20047;-42
2024/01/12 08:38:46;;;;;;;17.15;11.60;;;-6.40;99.90;;;;;;4907237;29;20032;-40
2024/01/12 08:41:12;;;;;;;21.85;11.00;;;-6.30;99.90;;;;;;4905730;29;20063;-41
2024/01/12 08:43:37;;;;;;;13.90;10.95;;;-6.10;99.90;;;;;;4907362;29;20089;-42
2024/01/12 08:46:03;;;;;;;19.10;10.32;;;-6.00;99.90;;;;;;4899701;29;20044;-42
2024/01/12 08:48:29;;;;;;;18.65;8.70;;;-6.00;99.90;;;;;;4899792;29;20047;-41
2024/01/12 08:50:55;;;;;;;22.17;11.40;;;-5.90;99.90;;;;;;4901311;29;20036;-41
2024/01/12 08:53:20;;;;;;;14.73;9.90;;;-5.80;99.90;;;;;;4907934;29;20856;-39
2024/01/12 08:55:46;;;;;;;17.35;11.00;;;-5.80;99.90;;;;;;4904253;29;20036;-40
2024/01/12 08:58:12;;;;;;;9.02;7.63;;;-5.70;99.90;;;;;;4906623;29;20029;-33
2024/01/12 09:00:37;;;;;;;20.13;13.35;;;-5.70;99.90;;;;;;4901937;29;20033;-33
2024/01/12 09:03:03;;;;;;;21.08;10.48;;;-5.70;99.90;;;;;;4906329;29;20375;-36
2024/01/12 09:05:29;;;;;;;16.98;9.90;;;-5.60;99.90;;;;;;4907133;29;20032;-35
2024/01/12 09:07:54;;;;;;;24.17;11.73;;;-5.60;99.90;;;;;;4905242;29;20033;-36
2024/01/12 09:10:20;;;;;;;20.80;10.18;;;-5.50;99.90;;;;;;4912544;29;20070;-36
2024/01/12 09:12:45;;;;;;;25.05;11.20;;;-5.50;99.90;;;;;;4909705;29;20032;-37
2024/01/12 09:15:11;;;;;;;14.45;12.50;;;-5.40;99.90;;;;;;4907027;29;20040;-34
2024/01/12 09:17:37;;;;;;;14.68;7.60;;;-5.40;99.90;;;;;;4901961;29;20463;-33
2024/01/12 09:20:02;;;;;;;22.65;13.43;;;-5.30;99.90;;;;;;4900455;29;20073;-35
2024/01/12 09:22:28;;;;;;;16.52;9.65;;;-5.30;99.90;;;;;;4910908;29;20035;-36
2024/01/12 09:24:54;;;;;;;21.83;12.18;;;-5.20;99.90;;;;;;4898676;29;20033;-35
2024/01/12 09:27:21;;;;;;;20.55;14.05;;;-5.20;99.90;;;;;;4900779;29;20510;-36
2024/01/12 09:29:47;;;;;;;25.20;13.90;;;-5.20;99.90;;;;;;4898724;29;20024;-37
2024/01/12 09:32:12;;;;;;;11.25;9.48;;;-5.10;99.90;;;;;;4906768;29;20455;-36
2024/01/12 09:34:38;;;;;;;23.23;13.20;;;-5.00;99.90;;;;;;4901962;29;20025;-33
2024/01/12 09:37:04;;;;;;;19.48;11.40;;;-5.00;99.90;;;;;;4895302;29;20063;-35
2024/01/12 09:39:30;;;;;;;25.55;14.27;;;-4.90;99.90;;;;;;4902766;29;20561;-35
2024/01/12 09:42:02;;;;;;;22.42;14.07;;;-4.90;99.90;;;;;;4901055;29;20542;-37
2024/01/12 09:44:29;;;;;;;26.95;13.75;;;-5.00;99.90;;;;;;4903578;29;20024;-35
2024/01/12 09:46:56;;;;;;;29.27;16.05;;;-4.90;99.90;;;;;;4901751;29;20025;-34
2024/01/12 09:49:23;;;;;;;29.20;15.95;;;-4.90;99.90;;;;;;4906386;29;20055;-34
2024/01/12 09:51:49;;;;;;;24.33;15.18;;;-4.90;99.90;;;;;;4901471;29;20533;-38
2024/01/12 09:54:16;;;;;;;20.17;12.88;;;-4.90;99.90;;;;;;4905071;29;20111;-35
2024/01/12 09:56:43;;;;;;;30.42;11.23;;;-4.80;99.90;;;;;;4902444;29;20123;-36
2024/01/12 09:59:09;;;;;;;24.75;14.45;;;-4.70;99.90;;;;;;4906406;29;20032;-35
2024/01/12 10:01:35;;;;;;;43.13;18.10;;;-4.70;99.90;;;;;;4903156;29;20028;-36
2024/01/12 10:04:00;;;;;;;26.23;16.08;;;-4.70;99.90;;;;;;4904118;29;20028;-33
2024/01/12 10:06:26;;;;;;;34.38;17.13;;;-4.60;99.90;;;;;;4893205;29;20498;-35
2024/01/12 10:08:51;;;;;;;32.53;16.70;;;-4.50;99.90;;;;;;4902864;29;20047;-39
2024/01/12 10:11:17;;;;;;;30.17;14.10;;;-4.60;99.90;;;;;;4903107;29;20020;-43
2024/01/12 10:13:43;;;;;;;29.17;16.27;;;-4.60;99.90;;;;;;4904130;29;20538;-36
2024/01/12 10:16:09;;;;;;;43.95;20.40;;;-4.60;99.90;;;;;;4903157;29;20034;-41
2024/01/12 10:18:34;;;;;;;38.75;17.90;;;-4.70;99.90;;;;;;4902705;29;20028;-42
2024/01/12 10:21:00;;;;;;;30.38;15.88;;;-4.70;99.90;;;;;;4898108;29;20029;-39
2024/01/12 10:23:26;;;;;;;23.05;14.68;;;-4.70;99.90;;;;;;4893075;29;20040;-41
2024/01/12 10:25:59;;;;;;;28.70;14.85;;;-4.60;99.90;;;;;;4895709;29;20024;-40
2024/01/12 10:28:31;;;;;;;31.92;16.08;;;-4.40;99.90;;;;;;4904506;29;20036;-41
2024/01/12 10:30:57;;;;;;;28.25;13.93;;;-4.50;99.90;;;;;;4905313;29;20455;-40
2024/01/12 10:33:24;;;;;;;23.20;13.43;;;-4.40;99.90;;;;;;4902805;29;20031;-41
2024/01/12 10:36:05;;;;;;;34.95;16.45;;;-4.30;99.90;;;;;;4898546;29;20032;-39
2024/01/12 10:38:31;;;;;;;45.33;18.98;;;-4.40;99.90;;;;;;4900855;29;20039;-42
2024/01/12 10:40:59;;;;;;;37.88;17.30;;;-4.50;99.90;;;;;;4900980;29;20115;-42
2024/01/12 10:43:27;;;;;;;34.53;16.20;;;-4.40;99.90;;;;;;4903676;29;20043;-40
2024/01/12 10:45:57;;;;;;;44.50;20.42;;;-4.50;99.90;;;;;;4900165;29;20127;-41
2024/01/12 10:48:27;;;;;;;36.15;17.95;;;-4.50;99.90;;;;;;4901994;29;20052;-42
2024/01/12 10:50:58;;;;;;;41.97;19.52;;;-4.40;99.90;;;;;;4898674;29;20036;-40
2024/01/12 10:53:29;;;;;;;41.25;16.77;;;-4.40;99.90;;;;;;4900556;29;20048;-39
2024/01/12 10:55:59;;;;;;;27.75;13.50;;;-4.40;99.90;;;;;;4903810;29;20565;-39
2024/01/12 10:58:26;;;;;;;32.10;16.08;;;-4.30;99.90;;;;;;4904821;29;20029;-41
2024/01/12 11:00:52;;;;;;;33.85;18.13;;;-4.30;99.90;;;;;;4902315;29;20454;-39
2024/01/12 11:03:19;;;;;;;29.75;14.40;;;-4.10;99.90;;;;;;4903948;29;20507;-40
2024/01/12 11:05:45;;;;;;;28.00;14.88;;;-3.90;99.90;;;;;;4903786;29;20035;-41
2024/01/12 11:08:17;;;;;;;27.15;16.38;;;-3.90;99.90;;;;;;4905327;29;20708;-43
2024/01/12 11:10:51;;;;;;;29.30;17.00;;;-3.80;99.90;;;;;;4904093;29;20667;-35
2024/01/12 11:13:17;;;;;;;34.92;17.00;;;-3.70;99.90;;;;;;4907669;29;20502;-32
2024/01/12 11:15:44;;;;;;;24.08;14.63;;;-3.60;99.90;;;;;;4908268;29;20470;-38
2024/01/12 11:18:10;;;;;;;25.63;15.77;;;-3.60;99.90;;;;;;4903638;29;20037;-37
2024/01/12 11:20:36;;;;;;;23.20;12.82;;;-3.50;99.90;;;;;;4901984;29;20075;-33
2024/01/12 11:23:01;;;;;;;38.85;15.85;;;-3.40;99.90;;;;;;4909573;29;20111;-35
2024/01/12 11:25:28;;;;;;;18.88;10.93;;;-3.40;99.90;;;;;;4908163;29;20743;-33
2024/01/12 11:27:56;;;;;;;34.72;18.30;;;-3.40;99.90;;;;;;4909921;29;20028;-34
2024/01/12 11:30:24;;;;;;;36.77;17.93;;;-3.30;99.90;;;;;;4891034;29;20437;-33
2024/01/12 11:32:59;;;;;;;;;;;-3.50;99.90;;;;;;4914217;29;20043;-33
2024/01/12 11:35:29;;;;;;;21.58;14.38;;;-3.70;99.90;;;;;;4910839;29;19918;-35
2024/01/12 11:38:12;;;;;;;32.92;15.77;;;-3.70;99.90;;;;;;4908144;29;20083;-36
2024/01/12 11:40:38;;;;;;;35.67;17.50;;;-3.70;99.90;;;;;;4909981;29;20382;-34
2024/01/12 11:43:04;;;;;;;31.98;16.95;;;-3.70;99.90;;;;;;4909493;29;20036;-33
2024/01/12 11:45:32;;;;;;;31.02;14.98;;;-3.60;99.90;;;;;;4908214;29;20087;-31
2024/01/12 11:48:02;;;;;;;44.53;20.20;;;-3.50;99.90;;;;;;4909581;29;20095;-34
2024/01/12 11:50:27;;;;;;;49.40;20.98;;;-3.40;99.90;;;;;;4907739;29;20032;-31
2024/01/12 11:53:00;;;;;;;33.95;18.90;;;-3.70;99.90;;;;;;4909447;29;20037;-31
2024/01/12 11:55:27;;;;;;;53.97;18.48;;;-3.80;99.90;;;;;;4913024;29;20062;-33
2024/01/12 11:57:56;;;;;;;35.67;18.55;;;-3.70;99.90;;;;;;4908114;29;20040;-37
2024/01/12 12:00:25;;;;;;;44.67;21.10;;;-3.80;99.90;;;;;;4910685;29;20165;-31
2024/01/12 12:02:50;;;;;;;36.53;17.38;;;-3.80;99.90;;;;;;4902921;29;20044;-33
2024/01/12 12:05:16;;;;;;;44.28;19.85;;;-3.80;99.90;;;;;;4906853;29;20032;-35
2024/01/12 12:07:42;;;;;;;39.15;17.90;;;-3.90;99.90;;;;;;4910390;29;20071;-40
2024/01/12 12:10:09;;;;;;;35.08;18.30;;;-3.90;99.90;;;;;;4914666;29;20024;-33
2024/01/12 12:12:35;;;;;;;36.50;19.05;;;-3.90;99.90;;;;;;4908520;29;20032;-34
2024/01/12 12:15:08;;;;;;;41.15;21.10;;;-3.80;99.90;;;;;;4905285;29;20540;-35
2024/01/12 12:17:40;;;;;;;48.78;21.17;;;-3.80;99.90;;;;;;4912197;29;20059;-32
2024/01/12 12:20:11;;;;;;;49.10;23.98;;;-3.80;99.90;;;;;;4906964;29;20040;-38
2024/01/12 12:22:46;;;;;;;35.78;17.98;;;-3.70;99.90;;;;;;4890726;29;20530;-36